Time;durP1;ratioP1;P1;durP2;ratioP2;P2;SDS_P1;SDS_P2;PMS_P1;PMS_P2;Temp;Humidity;BMP_temperature;BMP_pressure;BME280_temperature;BME280_humidity;BME280_pressure;Samples;Min_cycle;Max_cycle;Signal;HPM_P1;HPM_P2
2022/04/02 00:02:22;;;;;;;12.17;11.07;;;3.30;92.20;;;;;;5098280;28;20449;-46
2022/04/02 00:04:49;;;;;;;11.47;10.47;;;3.30;92.30;;;;;;5097757;28;20188;-46
2022/04/02 00:07:15;;;;;;;12.97;11.67;;;3.30;92.30;;;;;;5097822;28;20582;-46
2022/04/02 00:09:41;;;;;;;11.20;10.20;;;3.30;92.30;;;;;;5097754;28;20860;-46
2022/04/02 00:12:09;;;;;;;11.93;10.80;;;3.30;92.30;;;;;;5097716;28;20436;-46
2022/04/02 00:15:01;;;;;;;11.00;9.90;;;3.30;92.30;;;;;;5098175;28;20407;-46
2022/04/02 00:17:55;;;;;;;10.60;9.63;;;3.30;92.40;;;;;;5095765;28;20427;-46
2022/04/02 00:20:40;;;;;;;10.20;9.10;;;3.20;92.30;;;;;;5093596;28;20844;-46
2022/04/02 00:25:50;;;;;;;10.70;9.80;;;3.20;92.40;;;;;;5095381;28;20491;-46
2022/04/02 00:28:16;;;;;;;10.50;9.60;;;3.20;92.30;;;;;;5095859;28;20419;-46
2022/04/02 00:30:43;;;;;;;10.63;9.67;;;3.20;92.40;;;;;;5096381;28;20300;-46
2022/04/02 00:33:19;;;;;;;9.87;8.97;;;3.20;92.40;;;;;;5096357;28;20181;-46
2022/04/02 00:36:11;;;;;;;10.00;9.10;;;3.20;92.40;;;;;;5097717;28;20426;-46
2022/04/02 00:39:00;;;;;;;9.00;8.23;;;3.20;92.40;;;;;;5092053;28;20434;-46
2022/04/02 00:41:51;;;;;;;9.60;8.70;;;3.20;92.50;;;;;;5098070;28;20478;-46
2022/04/02 00:44:39;;;;;;;9.80;9.00;;;3.20;92.50;;;;;;5098001;28;20434;-46
2022/04/02 00:47:31;;;;;;;9.00;8.20;;;3.20;92.60;;;;;;5097463;28;20465;-46
2022/04/02 00:50:27;;;;;;;9.33;8.53;;;3.20;92.60;;;;;;5095435;28;20478;-45
2022/04/02 00:53:02;;;;;;;9.13;8.33;;;3.20;92.60;;;;;;5095739;28;20443;-46
2022/04/02 00:55:38;;;;;;;9.50;8.70;;;3.20;92.60;;;;;;5097255;28;20419;-46
2022/04/02 00:58:06;;;;;;;9.80;9.00;;;3.30;92.60;;;;;;5095909;28;20430;-46
2022/04/02 01:00:34;;;;;;;9.90;9.10;;;3.20;92.60;;;;;;5096364;28;20411;-46
2022/04/02 01:03:04;;;;;;;9.47;8.60;;;3.20;92.60;;;;;;5096292;28;20448;-46
2022/04/02 01:05:53;;;;;;;10.57;9.23;;;3.20;92.70;;;;;;5097038;28;20413;-46
2022/04/02 01:08:40;;;;;;;11.37;10.33;;;3.20;92.80;;;;;;5096138;28;20427;-46
2022/04/02 01:11:38;;;;;;;10.33;9.33;;;3.20;92.90;;;;;;5096226;28;20482;-46
2022/04/02 01:14:27;;;;;;;11.40;10.40;;;3.10;92.90;;;;;;5091742;28;20495;-46
2022/04/02 01:17:22;;;;;;;11.30;10.30;;;3.20;93.10;;;;;;5095925;28;20399;-46
2022/04/02 01:20:10;;;;;;;11.50;10.40;;;3.20;93.20;;;;;;5096280;28;20461;-46
2022/04/02 01:23:02;;;;;;;11.20;10.00;;;3.20;93.20;;;;;;5097202;28;20414;-46
2022/04/02 01:25:33;;;;;;;10.90;9.90;;;3.20;93.20;;;;;;5094764;28;20445;-46
2022/04/02 01:28:00;;;;;;;12.77;11.47;;;3.20;93.20;;;;;;5097730;28;20426;-46
2022/04/02 01:30:29;;;;;;;12.03;10.97;;;3.20;93.30;;;;;;5097062;28;20539;-47
2022/04/02 01:32:58;;;;;;;11.40;10.40;;;3.20;93.30;;;;;;5097166;28;21587;-46
2022/04/02 01:36:01;;;;;;;12.90;11.70;;;3.20;93.40;;;;;;5099833;28;20426;-46
2022/04/02 01:39:16;;;;;;;12.80;11.60;;;3.20;93.30;;;;;;5083900;28;20848;-46
2022/04/02 01:41:43;;;;;;;12.93;11.73;;;3.20;93.30;;;;;;5097542;28;20474;-46
2022/04/02 01:44:34;;;;;;;14.13;12.73;;;3.30;93.20;;;;;;5101770;28;20518;-46
2022/04/02 01:47:00;;;;;;;14.77;13.30;;;3.30;93.10;;;;;;5100059;28;20548;-46
2022/04/02 01:49:26;;;;;;;15.27;13.77;;;3.30;93.10;;;;;;5100436;28;20513;-46
2022/04/02 01:51:53;;;;;;;15.17;13.67;;;3.30;93.10;;;;;;5099830;28;20975;-46
2022/04/02 01:54:37;;;;;;;16.43;14.90;;;3.30;93.00;;;;;;5100279;28;20422;-46
2022/04/02 01:57:35;;;;;;;15.30;13.80;;;3.30;93.00;;;;;;5099309;28;20429;-46
2022/04/02 02:00:32;;;;;;;16.13;14.53;;;3.30;93.10;;;;;;5095726;28;20414;-46
2022/04/02 02:03:25;;;;;;;16.30;14.80;;;3.30;93.10;;;;;;5099731;28;20424;-46
2022/04/02 02:06:18;;;;;;;14.43;13.03;;;3.30;93.10;;;;;;5097941;28;20517;-46
2022/04/02 02:09:08;;;;;;;14.80;13.40;;;3.30;93.00;;;;;;5100151;28;20414;-46
2022/04/02 02:12:04;;;;;;;15.30;13.90;;;3.30;93.00;;;;;;5099643;28;20414;-46
2022/04/02 02:14:45;;;;;;;14.83;13.33;;;3.30;92.90;;;;;;5100961;28;20422;-46
2022/04/02 02:17:38;;;;;;;14.33;13.03;;;3.30;92.80;;;;;;5100442;28;20442;-46
2022/04/02 02:20:37;;;;;;;15.40;14.00;;;3.30;92.80;;;;;;5100793;28;20418;-46
2022/04/02 02:23:21;;;;;;;15.70;14.20;;;3.20;92.90;;;;;;5100830;28;20484;-46
2022/04/02 02:26:13;;;;;;;14.33;12.93;;;3.30;92.90;;;;;;5100146;28;20433;-46
2022/04/02 02:28:58;;;;;;;15.00;13.60;;;3.30;92.90;;;;;;5101061;28;20438;-46
2022/04/02 02:31:49;;;;;;;14.87;13.47;;;3.30;92.90;;;;;;5100112;28;20485;-46
2022/04/02 02:37:34;;;;;;;13.60;12.20;;;3.30;92.80;;;;;;5099507;28;20434;-46
2022/04/02 02:40:29;;;;;;;14.50;12.90;;;3.30;92.80;;;;;;5100819;28;20438;-46
2022/04/02 02:43:21;;;;;;;14.17;12.13;;;3.30;92.80;;;;;;5058995;28;20444;-46
2022/04/02 02:46:05;;;;;;;13.70;12.30;;;3.30;92.70;;;;;;5059820;28;20447;-46
2022/04/02 02:48:51;;;;;;;14.47;12.73;;;3.30;92.70;;;;;;5059451;28;20521;-46
2022/04/02 02:51:38;;;;;;;14.13;12.80;;;3.30;92.70;;;;;;5059525;28;20464;-46
2022/04/02 02:54:37;;;;;;;15.20;12.63;;;3.30;92.70;;;;;;5059120;28;20435;-46
2022/04/02 02:57:39;;;;;;;14.07;12.67;;;3.30;92.60;;;;;;5059040;28;20413;-52
2022/04/02 03:00:22;;;;;;;12.90;11.70;;;3.30;92.50;;;;;;5059398;28;20438;-46
2022/04/02 03:03:16;;;;;;;12.60;11.40;;;3.30;92.50;;;;;;5058971;28;20436;-46
2022/04/02 03:06:06;;;;;;;12.70;11.70;;;3.30;92.50;;;;;;5059509;28;20468;-46
2022/04/02 03:08:50;;;;;;;12.80;11.50;;;3.30;92.60;;;;;;5058716;28;20440;-46
2022/04/02 03:11:40;;;;;;;12.00;10.90;;;3.30;92.50;;;;;;5058655;28;20456;-46
2022/04/02 03:14:33;;;;;;;12.90;11.50;;;3.30;92.40;;;;;;5058932;28;20431;-46
2022/04/02 03:17:31;;;;;;;12.70;11.50;;;3.30;92.30;;;;;;5058821;28;20416;-46
2022/04/02 03:20:13;;;;;;;11.73;10.53;;;3.30;92.30;;;;;;5058741;28;20421;-46
2022/04/02 03:23:06;;;;;;;11.20;10.10;;;3.30;92.60;;;;;;5058024;28;20532;-46
2022/04/02 03:25:37;;;;;;;12.20;11.00;;;3.30;92.30;;;;;;5058844;28;20835;-46
2022/04/02 03:28:32;;;;;;;11.80;10.53;;;3.30;92.20;;;;;;5058826;28;20843;-46
2022/04/02 03:31:26;;;;;;;11.27;10.20;;;3.30;92.20;;;;;;5058343;28;20511;-46
2022/04/02 03:34:17;;;;;;;12.27;11.00;;;3.30;92.10;;;;;;5059153;28;20478;-46
2022/04/02 03:37:08;;;;;;;10.67;8.90;;;3.20;92.00;;;;;;5058192;28;20516;-46
2022/04/02 03:40:01;;;;;;;11.63;10.30;;;3.20;92.00;;;;;;5059395;28;20436;-46
2022/04/02 03:42:53;;;;;;;11.70;10.60;;;3.20;92.10;;;;;;5090066;28;20475;-46
2022/04/02 03:45:31;;;;;;;9.90;8.97;;;3.20;92.10;;;;;;5096898;28;20431;-45
2022/04/02 03:48:26;;;;;;;10.00;9.00;;;3.20;92.00;;;;;;5098980;28;20423;-46
2022/04/02 03:51:10;;;;;;;10.93;9.80;;;3.20;92.10;;;;;;5095844;28;20577;-46
2022/04/02 03:54:03;;;;;;;10.70;9.60;;;3.20;92.10;;;;;;5097455;28;20465;-46
2022/04/02 03:56:42;;;;;;;9.93;8.93;;;3.20;92.10;;;;;;5096949;28;20721;-46
2022/04/02 03:59:31;;;;;;;10.23;9.23;;;3.20;92.00;;;;;;5098418;28;20430;-46
2022/04/02 04:02:26;;;;;;;10.20;9.30;;;3.20;92.00;;;;;;5096895;28;20419;-46
2022/04/02 04:05:14;;;;;;;12.43;9.57;;;3.20;92.00;;;;;;5095024;28;20427;-48
2022/04/02 04:08:14;;;;;;;9.20;8.40;;;3.20;92.10;;;;;;5094594;28;20431;-48
2022/04/02 04:10:57;;;;;;;9.23;8.33;;;3.20;92.00;;;;;;5093108;28;20877;-40
2022/04/02 04:13:51;;;;;;;11.03;9.53;;;3.20;92.00;;;;;;5096823;28;20525;-40
2022/04/02 04:16:44;;;;;;;11.80;9.50;;;3.20;91.90;;;;;;5095742;28;20798;-40
2022/04/02 04:19:22;;;;;;;10.40;9.37;;;3.20;91.90;;;;;;5092822;28;20845;-41
2022/04/02 04:22:13;;;;;;;10.47;9.47;;;3.30;91.80;;;;;;5095943;28;20399;-42
2022/04/02 04:25:12;;;;;;;11.87;8.63;;;3.30;91.70;;;;;;5095694;28;20524;-41
2022/04/02 04:28:02;;;;;;;9.80;8.20;;;3.30;91.60;;;;;;5092475;28;20488;-42
2022/04/02 04:30:55;;;;;;;12.90;8.40;;;3.30;91.60;;;;;;5094389;28;20482;-41
2022/04/02 04:33:38;;;;;;;10.57;8.83;;;3.30;91.50;;;;;;5095974;28;20625;-40
2022/04/02 04:36:31;;;;;;;11.67;8.20;;;3.30;91.40;;;;;;5095170;28;20454;-41
2022/04/02 04:39:22;;;;;;;15.33;8.57;;;3.20;91.30;;;;;;5090348;28;20422;-42
2022/04/02 04:42:17;;;;;;;9.60;7.60;;;3.20;91.20;;;;;;5086061;28;20487;-41
2022/04/02 04:44:57;;;;;;;9.13;8.20;;;3.20;91.20;;;;;;5094917;28;20435;-41
2022/04/02 04:47:48;;;;;;;11.10;8.13;;;3.20;91.20;;;;;;5094493;28;20976;-41
2022/04/02 04:50:41;;;;;;;12.40;7.80;;;3.20;91.30;;;;;;5095101;28;20549;-41
2022/04/02 04:53:25;;;;;;;11.50;7.67;;;3.10;91.20;;;;;;5091839;28;20455;-41
2022/04/02 04:56:20;;;;;;;8.47;7.67;;;3.10;91.30;;;;;;5093759;28;20419;-41
2022/04/02 04:59:15;;;;;;;8.60;7.80;;;3.10;91.30;;;;;;5090398;28;20439;-41
2022/04/02 05:02:12;;;;;;;9.57;7.90;;;3.10;91.30;;;;;;5092458;28;20425;-43
2022/04/02 05:04:55;;;;;;;9.23;7.63;;;3.20;91.40;;;;;;5092900;28;20709;-43
2022/04/02 05:07:46;;;;;;;7.90;7.20;;;3.10;91.40;;;;;;5094518;28;20714;-42
2022/04/02 05:10:18;;;;;;;8.60;7.70;;;3.10;91.40;;;;;;5100395;28;20474;-40
2022/04/02 05:12:44;;;;;;;7.50;6.80;;;3.20;91.50;;;;;;5094317;28;20695;-41
2022/04/02 05:15:13;;;;;;;7.50;6.80;;;3.20;91.50;;;;;;5093714;28;20832;-42
2022/04/02 05:17:50;;;;;;;7.40;6.70;;;3.20;91.50;;;;;;5093222;28;20422;-42
2022/04/02 05:20:39;;;;;;;7.33;6.63;;;3.20;91.50;;;;;;5093172;28;20478;-41
2022/04/02 05:23:11;;;;;;;7.50;6.90;;;3.20;91.50;;;;;;5093528;28;20840;-41
2022/04/02 05:25:38;;;;;;;7.70;7.00;;;3.20;91.50;;;;;;5094163;28;20505;-42
2022/04/02 05:28:11;;;;;;;7.40;6.80;;;3.20;91.50;;;;;;5093735;28;20844;-41
2022/04/02 05:30:40;;;;;;;7.97;7.23;;;3.20;91.50;;;;;;5094448;28;20834;-43
2022/04/02 05:33:25;;;;;;;8.33;7.63;;;3.20;91.50;;;;;;5094361;28;20434;-42
2022/04/02 05:36:19;;;;;;;8.20;7.50;;;3.20;91.50;;;;;;5093467;28;20937;-42
2022/04/02 05:38:52;;;;;;;7.50;6.80;;;3.20;91.50;;;;;;5113464;28;20422;-42
2022/04/02 05:41:46;;;;;;;8.70;7.50;;;3.20;91.40;;;;;;5114941;28;20481;-42
2022/04/02 05:44:42;;;;;;;7.33;6.63;;;3.30;91.40;;;;;;5115397;28;20692;-42
2022/04/02 05:47:39;;;;;;;8.03;7.33;;;3.30;91.20;;;;;;5113714;28;20414;-41
2022/04/02 05:50:42;;;;;;;7.67;6.97;;;3.30;91.20;;;;;;5113248;28;20503;-41
2022/04/02 05:53:17;;;;;;;7.43;6.80;;;3.30;91.20;;;;;;5100441;28;20858;-42
2022/04/02 05:56:05;;;;;;;6.40;5.80;;;3.30;91.20;;;;;;5112835;28;20402;-41
2022/04/02 05:59:07;;;;;;;8.03;7.33;;;3.40;91.30;;;;;;5110169;28;20418;-42
2022/04/02 06:01:50;;;;;;;7.40;6.70;;;3.40;91.20;;;;;;5110351;28;20401;-41
2022/04/02 06:04:41;;;;;;;6.60;6.03;;;3.40;91.10;;;;;;5111881;28;20432;-40
2022/04/02 06:07:41;;;;;;;6.67;6.03;;;3.50;91.00;;;;;;5107778;28;20414;-42
2022/04/02 06:10:41;;;;;;;7.27;6.63;;;3.50;91.00;;;;;;5091058;28;20493;-42
2022/04/02 06:13:24;;;;;;;7.93;7.23;;;3.60;91.00;;;;;;5087707;28;20445;-41
2022/04/02 06:16:06;;;;;;;6.37;5.83;;;3.70;90.90;;;;;;5090682;28;20649;-40
2022/04/02 06:18:57;;;;;;;8.53;6.17;;;3.70;90.70;;;;;;5092261;28;20727;-41
2022/04/02 06:21:52;;;;;;;6.90;6.20;;;3.80;90.60;;;;;;5101625;28;20512;-41
2022/04/02 06:24:41;;;;;;;7.00;6.40;;;3.80;90.40;;;;;;5104863;28;20544;-41
2022/04/02 06:27:31;;;;;;;7.53;6.83;;;3.80;90.30;;;;;;5112761;28;20450;-41
2022/04/02 06:30:30;;;;;;;6.67;6.13;;;3.90;90.30;;;;;;5104326;28;20571;-41
2022/04/02 06:33:15;;;;;;;7.30;6.60;;;3.90;90.20;;;;;;5072230;28;20463;-42
2022/04/02 06:36:07;;;;;;;5.83;5.33;;;4.00;90.10;;;;;;5117573;28;20406;-40
2022/04/02 06:39:06;;;;;;;6.33;5.83;;;4.00;90.00;;;;;;5116032;28;20422;-42
2022/04/02 06:41:40;;;;;;;6.20;5.60;;;4.00;89.80;;;;;;5114978;27;20465;-41
2022/04/02 06:44:30;;;;;;;6.07;5.57;;;4.10;89.70;;;;;;5115789;28;20704;-42
2022/04/02 06:47:19;;;;;;;5.93;5.43;;;4.20;90.10;;;;;;5116984;28;20414;-43
2022/04/02 06:49:58;;;;;;;6.23;5.63;;;4.30;89.30;;;;;;5114236;28;20581;-44
2022/04/02 06:52:51;;;;;;;6.73;6.13;;;4.40;89.00;;;;;;5116497;28;20682;-41
2022/04/02 06:55:46;;;;;;;6.80;5.63;;;4.50;88.50;;;;;;5107481;28;20457;-43
2022/04/02 06:58:40;;;;;;;5.60;5.10;;;4.60;87.90;;;;;;5113412;28;20533;-41
2022/04/02 07:01:31;;;;;;;6.97;6.37;;;4.60;87.40;;;;;;5116105;28;20414;-41
2022/04/02 07:04:32;;;;;;;7.30;6.60;;;4.60;87.20;;;;;;5103334;27;20486;-44
2022/04/02 07:07:21;;;;;;;6.00;5.40;;;4.70;87.30;;;;;;5115672;28;20418;-42
2022/04/02 07:10:16;;;;;;;5.80;5.30;;;4.70;87.00;;;;;;5115416;28;20442;-42
2022/04/02 07:13:10;;;;;;;7.57;6.93;;;4.80;86.90;;;;;;5117532;28;20925;-41
2022/04/02 07:16:02;;;;;;;7.33;6.73;;;4.90;86.90;;;;;;5116559;28;20507;-42
2022/04/02 07:18:54;;;;;;;6.67;6.10;;;4.90;86.50;;;;;;5114662;28;20527;-42
2022/04/02 07:21:47;;;;;;;5.60;5.10;;;5.00;86.30;;;;;;5089823;28;20418;-42
2022/04/02 07:24:42;;;;;;;5.73;5.17;;;5.10;85.90;;;;;;5112285;28;20426;-43
2022/04/02 07:27:28;;;;;;;6.10;5.60;;;5.10;85.40;;;;;;5113499;28;21055;-43
2022/04/02 07:30:17;;;;;;;6.40;5.80;;;5.20;85.10;;;;;;5112933;28;20458;-43
2022/04/02 07:33:15;;;;;;;6.67;5.53;;;5.20;84.80;;;;;;5111595;28;20512;-45
2022/04/02 07:36:16;;;;;;;7.07;6.37;;;5.20;84.70;;;;;;5111120;28;20413;-41
2022/04/02 07:39:12;;;;;;;7.17;5.53;;;5.10;84.40;;;;;;5068522;28;20536;-43
2022/04/02 07:42:11;;;;;;;5.53;5.00;;;5.10;84.50;;;;;;5113929;28;20481;-41
2022/04/02 07:45:01;;;;;;;6.33;5.73;;;5.20;84.70;;;;;;5114576;28;20453;-41
2022/04/02 07:47:42;;;;;;;6.17;5.57;;;5.20;84.50;;;;;;5113039;28;20841;-41
2022/04/02 07:50:36;;;;;;;5.60;5.10;;;5.20;84.30;;;;;;5113417;28;20466;-44
2022/04/02 07:53:34;;;;;;;6.10;5.50;;;5.10;84.30;;;;;;5112596;28;20433;-43
2022/04/02 07:56:20;;;;;;;6.53;5.40;;;5.10;84.20;;;;;;5113344;28;20929;-45
2022/04/02 07:59:14;;;;;;;7.07;6.10;;;5.10;84.10;;;;;;5111199;28;20424;-41
2022/04/02 08:01:57;;;;;;;5.80;5.30;;;5.10;84.00;;;;;;5112044;28;20414;-43
2022/04/02 08:04:39;;;;;;;6.60;6.00;;;5.10;84.00;;;;;;5111114;28;20442;-42
2022/04/02 08:07:30;;;;;;;6.47;5.87;;;5.10;84.60;;;;;;5108170;28;20710;-42
2022/04/02 08:10:30;;;;;;;7.13;5.60;;;5.10;83.80;;;;;;5107076;27;20863;-42
2022/04/02 08:13:26;;;;;;;7.50;6.77;;;5.30;83.80;;;;;;5103122;28;20422;-43
2022/04/02 08:16:01;;;;;;;6.17;5.67;;;5.40;83.70;;;;;;5110654;28;20424;-42
2022/04/02 08:18:46;;;;;;;6.73;6.23;;;5.50;83.40;;;;;;5112178;28;20418;-43
2022/04/02 08:21:29;;;;;;;6.03;5.53;;;5.50;83.00;;;;;;5111153;28;20440;-43
2022/04/02 08:24:16;;;;;;;5.97;5.47;;;5.60;82.70;;;;;;5113001;28;20437;-42
2022/04/02 08:27:02;;;;;;;8.73;5.87;;;5.70;82.30;;;;;;5114135;28;20833;-46
2022/04/02 08:29:54;;;;;;;6.90;6.30;;;5.80;81.80;;;;;;5114247;28;20422;-44
2022/04/02 08:32:42;;;;;;;7.60;6.90;;;5.80;81.20;;;;;;5114072;28;20413;-44
2022/04/02 08:35:57;;;;;;;7.60;6.90;;;5.80;80.90;;;;;;5112959;28;20505;-44
2022/04/02 08:38:48;;;;;;;6.50;6.00;;;5.80;81.30;;;;;;5029516;28;20441;-44
2022/04/02 08:41:45;;;;;;;5.93;5.33;;;5.90;80.40;;;;;;5111780;28;20443;-43
2022/04/02 08:44:35;;;;;;;6.50;5.90;;;5.90;80.40;;;;;;5113019;28;20641;-40
2022/04/02 08:47:27;;;;;;;6.17;5.53;;;6.00;80.20;;;;;;5110902;28;20452;-43
2022/04/02 08:50:10;;;;;;;6.80;6.17;;;6.10;80.10;;;;;;5110639;28;20545;-41
2022/04/02 08:53:02;;;;;;;7.00;5.67;;;6.30;79.80;;;;;;5105953;28;20572;-42
2022/04/02 08:55:46;;;;;;;7.40;5.63;;;6.30;78.70;;;;;;5089423;28;20930;-42
2022/04/02 08:58:25;;;;;;;7.20;5.83;;;6.40;78.30;;;;;;5086971;28;20419;-46
2022/04/02 09:01:08;;;;;;;5.90;5.40;;;6.30;77.30;;;;;;5092558;28;20525;-44
2022/04/02 09:07:24;;;;;;;6.50;6.00;;;6.30;77.20;;;;;;5061280;28;20425;-43
2022/04/02 09:10:35;;;;;;;5.43;5.03;;;6.40;77.40;;;;;;5089259;28;20593;-41
2022/04/02 09:13:49;;;;;;;6.00;5.50;;;6.40;77.10;;;;;;5093882;28;20961;-42
2022/04/02 09:16:57;;;;;;;6.77;6.17;;;6.50;76.90;;;;;;5009632;28;20435;-44
2022/04/02 09:19:56;;;;;;;6.70;6.00;;;6.60;76.40;;;;;;4988817;28;20481;-43
2022/04/02 09:22:32;;;;;;;6.73;6.13;;;6.70;75.70;;;;;;5093520;28;20407;-41
2022/04/02 09:25:13;;;;;;;7.13;6.43;;;6.70;75.10;;;;;;5093312;28;20426;-45
2022/04/02 09:28:03;;;;;;;5.87;5.27;;;6.70;75.00;;;;;;5092018;28;20478;-43
2022/04/02 09:30:59;;;;;;;7.10;6.43;;;6.80;74.90;;;;;;5090571;28;21086;-43
2022/04/02 09:34:38;;;;;;;5.93;5.43;;;6.80;74.80;;;;;;5089973;28;20422;-44
2022/04/02 09:37:37;;;;;;;6.80;6.17;;;6.90;74.50;;;;;;4913944;28;20423;-42
2022/04/02 09:40:15;;;;;;;7.60;6.90;;;7.00;74.20;;;;;;5091421;28;20417;-42
2022/04/02 09:43:28;;;;;;;7.33;6.37;;;6.90;73.80;;;;;;5090363;28;20492;-42
2022/04/02 09:46:33;;;;;;;6.73;6.13;;;7.00;73.60;;;;;;5052440;28;20430;-42
2022/04/02 09:49:00;;;;;;;7.53;6.73;;;7.00;73.40;;;;;;5085979;28;20787;-44
2022/04/02 09:51:35;;;;;;;7.53;6.73;;;7.10;73.40;;;;;;5089977;28;20477;-41
2022/04/02 09:54:33;;;;;;;7.67;7.07;;;7.10;73.20;;;;;;5089420;28;20414;-41
2022/04/02 09:57:26;;;;;;;6.87;6.37;;;7.10;72.90;;;;;;5094260;28;20910;-41
2022/04/02 10:00:13;;;;;;;7.40;6.80;;;7.10;72.60;;;;;;5095600;28;20513;-44
2022/04/02 10:03:13;;;;;;;7.50;6.80;;;7.00;72.50;;;;;;5095731;28;20414;-41
2022/04/02 10:06:10;;;;;;;7.33;6.70;;;6.90;72.30;;;;;;5094999;28;20436;-43
2022/04/02 10:09:09;;;;;;;9.30;8.60;;;6.70;72.50;;;;;;5092962;28;20458;-41
2022/04/02 10:11:55;;;;;;;7.60;6.90;;;6.60;72.70;;;;;;5091192;28;20478;-44
2022/04/02 10:14:34;;;;;;;8.13;7.10;;;6.50;72.90;;;;;;5096363;28;20419;-43
2022/04/02 10:17:25;;;;;;;7.67;7.07;;;6.40;72.90;;;;;;5101484;28;20437;-45
2022/04/02 10:20:29;;;;;;;7.60;6.90;;;6.30;73.20;;;;;;5096278;28;20450;-41
2022/04/02 10:23:20;;;;;;;8.27;7.53;;;6.30;73.30;;;;;;5097032;28;20422;-44
2022/04/02 10:26:07;;;;;;;7.90;7.20;;;6.20;73.20;;;;;;5095936;28;20913;-42
2022/04/02 10:29:05;;;;;;;9.87;8.03;;;6.10;73.40;;;;;;5096156;28;20895;-41
2022/04/02 10:31:50;;;;;;;9.00;8.20;;;6.10;73.20;;;;;;5076280;28;20474;-43
2022/04/02 10:34:53;;;;;;;7.70;7.10;;;6.10;73.30;;;;;;5093777;28;20494;-41
2022/04/02 10:37:25;;;;;;;7.13;6.50;;;6.30;73.20;;;;;;5094840;28;20403;-41
2022/04/02 10:40:27;;;;;;;10.10;9.20;;;6.60;73.10;;;;;;5093337;28;20438;-42
2022/04/02 10:43:25;;;;;;;11.03;8.87;;;6.80;72.60;;;;;;5095266;28;21005;-42
2022/04/02 10:46:14;;;;;;;8.77;7.90;;;6.80;71.60;;;;;;5095689;28;20433;-42
2022/04/02 10:49:07;;;;;;;8.70;7.67;;;6.70;71.00;;;;;;5091408;28;20429;-43
2022/04/02 10:52:00;;;;;;;9.53;8.70;;;6.70;71.20;;;;;;5095026;28;20528;-44
2022/04/02 10:54:51;;;;;;;9.10;8.20;;;6.70;71.40;;;;;;5093077;28;20501;-42
2022/04/02 10:57:35;;;;;;;10.43;9.17;;;6.80;71.60;;;;;;5093751;28;20839;-43
2022/04/02 11:00:27;;;;;;;9.00;8.20;;;6.80;71.70;;;;;;5092627;28;20434;-42
2022/04/02 11:03:31;;;;;;;8.73;8.00;;;6.90;71.40;;;;;;5076443;28;20912;-42
2022/04/02 11:06:27;;;;;;;8.47;7.63;;;7.00;71.10;;;;;;5091034;28;20716;-43
2022/04/02 11:09:30;;;;;;;8.10;7.43;;;7.10;70.60;;;;;;5090194;28;20462;-41
2022/04/02 11:12:15;;;;;;;7.57;6.87;;;7.10;70.00;;;;;;5087953;28;20415;-42
2022/04/02 11:15:07;;;;;;;8.17;7.47;;;7.20;70.00;;;;;;5088118;28;20909;-42
2022/04/02 11:17:53;;;;;;;7.87;7.17;;;7.20;69.90;;;;;;5090202;28;20739;-41
2022/04/02 11:20:42;;;;;;;8.27;7.10;;;7.20;69.80;;;;;;5088053;28;20814;-42
2022/04/02 11:23:43;;;;;;;7.70;6.90;;;7.20;69.60;;;;;;5090469;28;20423;-43
2022/04/02 11:26:24;;;;;;;7.87;7.20;;;7.20;69.50;;;;;;5095556;28;20504;-42
2022/04/02 11:29:06;;;;;;;6.67;6.10;;;7.20;69.50;;;;;;5104528;28;20432;-42
2022/04/02 11:31:54;;;;;;;7.30;6.70;;;7.20;69.50;;;;;;5102606;28;20560;-42
2022/04/02 11:34:45;;;;;;;7.23;6.60;;;7.20;68.90;;;;;;5104702;28;20426;-44
2022/04/02 11:38:01;;;;;;;7.90;7.30;;;7.20;68.90;;;;;;5104993;28;20881;-41
2022/04/02 11:40:41;;;;;;;7.20;6.50;;;7.10;68.90;;;;;;5043420;28;20429;-43
2022/04/02 11:43:20;;;;;;;10.50;8.00;;;7.20;69.40;;;;;;5107632;28;20465;-43
2022/04/02 11:45:59;;;;;;;7.00;6.50;;;7.20;69.50;;;;;;5107034;28;20426;-43
2022/04/02 11:48:59;;;;;;;8.37;7.57;;;7.30;69.50;;;;;;5109931;28;20445;-42
2022/04/02 11:51:47;;;;;;;8.27;7.60;;;7.30;69.30;;;;;;5109729;28;20466;-43
2022/04/02 11:54:42;;;;;;;8.73;7.93;;;7.30;69.10;;;;;;5107623;28;21006;-42
2022/04/02 11:57:36;;;;;;;7.87;7.20;;;7.20;69.00;;;;;;5106723;28;20482;-43
2022/04/02 12:00:28;;;;;;;8.13;7.43;;;7.10;68.90;;;;;;5106865;28;20418;-41
2022/04/02 12:03:23;;;;;;;8.27;7.47;;;7.00;69.00;;;;;;5106542;28;20579;-43
2022/04/02 12:06:15;;;;;;;8.30;7.50;;;6.90;69.20;;;;;;5108119;28;20422;-41
2022/04/02 12:09:00;;;;;;;8.03;7.40;;;6.90;69.40;;;;;;5103984;28;20458;-42
2022/04/02 12:11:58;;;;;;;7.70;7.10;;;6.90;69.70;;;;;;5107776;28;20566;-44
2022/04/02 12:14:58;;;;;;;9.37;8.57;;;6.90;69.80;;;;;;5109228;28;20450;-44
2022/04/02 12:17:37;;;;;;;8.40;7.60;;;6.90;69.70;;;;;;5106700;28;20417;-43
2022/04/02 12:20:36;;;;;;;9.73;8.83;;;6.90;69.50;;;;;;5104462;28;20448;-44
2022/04/02 12:23:12;;;;;;;7.97;7.17;;;6.90;69.50;;;;;;5108152;27;20448;-42
2022/04/02 12:26:02;;;;;;;7.70;7.10;;;6.90;69.70;;;;;;5106643;28;20502;-45
2022/04/02 12:28:59;;;;;;;9.17;8.33;;;7.00;70.00;;;;;;5105373;28;20433;-41
2022/04/02 12:31:51;;;;;;;8.20;7.50;;;7.00;70.00;;;;;;5106576;28;20924;-43
2022/04/02 12:35:00;;;;;;;11.53;10.43;;;7.00;70.30;;;;;;5106471;28;20741;-42
2022/04/02 12:37:52;;;;;;;9.47;8.57;;;7.10;70.40;;;;;;5063092;28;20432;-43
2022/04/02 12:40:29;;;;;;;9.57;8.67;;;7.20;70.30;;;;;;5094776;28;20524;-44
2022/04/02 12:43:26;;;;;;;8.80;8.10;;;7.30;70.00;;;;;;5106901;28;20508;-42
2022/04/02 12:46:26;;;;;;;11.23;10.23;;;7.30;69.60;;;;;;5105005;28;20565;-41
2022/04/02 12:49:03;;;;;;;8.93;8.13;;;7.20;69.20;;;;;;5104169;28;20859;-44
2022/04/02 12:51:48;;;;;;;9.73;8.90;;;7.10;69.20;;;;;;5105624;28;20500;-43
2022/04/02 12:54:37;;;;;;;9.50;8.50;;;7.00;69.20;;;;;;5104752;28;20426;-43
2022/04/02 12:57:34;;;;;;;11.23;10.03;;;7.00;69.30;;;;;;5099455;28;20419;-41
2022/04/02 13:00:32;;;;;;;10.53;9.63;;;6.90;69.50;;;;;;5103336;28;20823;-44
2022/04/02 13:03:33;;;;;;;11.90;10.80;;;6.90;69.80;;;;;;5104166;28;20430;-42
2022/04/02 13:06:24;;;;;;;11.50;10.40;;;6.90;69.80;;;;;;5094147;28;20429;-46
2022/04/02 13:09:05;;;;;;;10.33;9.50;;;6.90;69.60;;;;;;5107156;28;20458;-51
2022/04/02 13:11:58;;;;;;;11.10;10.10;;;6.90;69.50;;;;;;5106637;28;20497;-43
2022/04/02 13:15:03;;;;;;;10.60;9.70;;;6.90;69.40;;;;;;5107663;28;20417;-44
2022/04/02 13:20:44;;;;;;;9.07;8.27;;;6.70;69.70;;;;;;5106232;28;20403;-46
2022/04/02 13:23:55;;;;;;;10.10;9.30;;;6.70;69.90;;;;;;5104478;28;20677;-42
2022/04/02 13:26:32;;;;;;;12.23;10.67;;;6.70;70.30;;;;;;5106149;28;20422;-44
2022/04/02 13:29:51;;;;;;;10.17;9.27;;;6.80;70.50;;;;;;5105679;28;20544;-43
2022/04/02 13:32:24;;;;;;;9.23;8.50;;;7.10;70.30;;;;;;5030339;28;20798;-44
2022/04/02 13:35:11;;;;;;;9.37;8.57;;;7.30;69.60;;;;;;5108613;28;20410;-41
2022/04/02 13:38:00;;;;;;;9.50;8.60;;;7.60;69.20;;;;;;5108647;28;20555;-43
2022/04/02 13:40:29;;;;;;;9.70;8.83;;;7.70;68.40;;;;;;5109948;28;20422;-41
2022/04/02 13:43:29;;;;;;;13.60;10.33;;;7.90;68.00;;;;;;5108500;28;20470;-43
2022/04/02 13:46:20;;;;;;;13.43;12.13;;;8.00;67.80;;;;;;5109115;28;20799;-41
2022/04/02 13:48:55;;;;;;;13.70;9.73;;;8.00;67.10;;;;;;5107446;28;20515;-42
2022/04/02 13:52:02;;;;;;;10.70;9.70;;;8.00;66.80;;;;;;5109497;28;20473;-43
2022/04/02 13:54:47;;;;;;;10.50;9.50;;;8.00;66.60;;;;;;5110535;28;20417;-44
2022/04/02 13:57:35;;;;;;;10.40;9.50;;;8.20;66.80;;;;;;5110094;27;20417;-44
2022/04/02 14:00:21;;;;;;;11.17;10.07;;;8.20;66.60;;;;;;5107493;28;20739;-44
2022/04/02 14:03:11;;;;;;;10.00;9.20;;;8.30;66.40;;;;;;5107677;28;20456;-43
2022/04/02 14:06:00;;;;;;;9.93;9.03;;;8.40;65.80;;;;;;5110165;28;21071;-42
2022/04/02 14:08:57;;;;;;;10.80;9.80;;;8.50;65.70;;;;;;5104752;28;21033;-43
2022/04/02 14:11:36;;;;;;;10.50;9.60;;;8.50;65.30;;;;;;5107301;28;20473;-43
2022/04/02 14:14:30;;;;;;;9.73;8.60;;;8.50;65.10;;;;;;5105845;28;20518;-42
2022/04/02 14:17:07;;;;;;;11.50;8.40;;;8.50;64.90;;;;;;5106888;28;20430;-42
2022/04/02 14:19:56;;;;;;;9.30;8.50;;;8.50;64.60;;;;;;5109877;28;20487;-43
2022/04/02 14:23:05;;;;;;;9.10;8.40;;;8.50;64.20;;;;;;5115342;28;20432;-42
2022/04/02 14:25:52;;;;;;;10.00;9.00;;;8.40;64.10;;;;;;5112010;28;20835;-43
2022/04/02 14:28:27;;;;;;;14.93;13.33;;;8.40;64.50;;;;;;5114164;28;20831;-41
2022/04/02 14:31:12;;;;;;;12.70;11.50;;;8.40;64.80;;;;;;5115534;28;20465;-42
2022/04/02 14:34:01;;;;;;;13.00;11.70;;;8.50;65.00;;;;;;5116409;28;20504;-41
2022/04/02 14:37:02;;;;;;;11.93;10.73;;;8.30;64.60;;;;;;5115687;28;20405;-41
2022/04/02 14:40:08;;;;;;;11.67;10.60;;;8.30;64.60;;;;;;5115302;28;20406;-42
2022/04/02 14:43:11;;;;;;;11.00;10.10;;;8.20;64.50;;;;;;5114501;28;20559;-42
2022/04/02 14:46:03;;;;;;;10.70;9.67;;;8.20;64.60;;;;;;5084085;28;21010;-43
2022/04/02 14:49:19;;;;;;;11.50;10.33;;;8.30;64.60;;;;;;5115126;28;20429;-42
2022/04/02 14:52:32;;;;;;;11.17;10.07;;;8.30;64.60;;;;;;5113483;28;20466;-42
2022/04/02 14:55:35;;;;;;;11.10;10.00;;;8.40;64.50;;;;;;5111962;28;20424;-41
2022/04/02 14:58:34;;;;;;;11.17;10.17;;;8.30;64.50;;;;;;5113043;28;20421;-41